KDBQ/DBQ METAR and TAF weather

Enter ICAO airport designator
Station Type Date Time Source
KDBQ METAR 2020/09/25 17:53 UTC NOAA

KDBQ 251753Z 20014KT 10SM CLR 24/15 A2989 RMK AO2 SLP117 T02440150 10244 20133 58014 $


Station Type Date Time Source
KDBQ Decoded METAR 2020/09/25 17:53 UTC NOAA

DUBUQUE REGIONAL AIRPORT, IA, United States (KDBQ) 42-24N 90-42W 326M
Sep 25, 2020 - 01:53 PM EDT / 2020.09.25 1753 UTC
Wind: from the SSW (200 degrees) at 16 MPH (14 KT):0
Visibility: 10 mile(s):0
Sky conditions: clear
Temperature: 75.9 F (24.4 C)
Dew Point: 59.0 F (15.0 C)
Relative Humidity: 55%
Pressure (altimeter): 29.89 in. Hg (1012 hPa)
Pressure tendency: 0.04 inches (1.4 hPa) lower than three hours ago
ob: KDBQ 251753Z 20014KT 10SM CLR 24/15 A2989 RMK AO2 SLP117 T02440150 10244 20133 58014
cycle: 18

Station Type Date Time Source
KDBQ TAF 2020/09/25 18:22 UTC NOAA

TAF KDBQ 251720Z 2518/2618 19014G21KT P6SM SCT250
FM260000 18009KT P6SM SCT250
FM261500 20013G20KT P6SM SCT250

Example: see airport list